sensor_id;sensor_type;location;lat;lon;timestamp;temperature;humidity
14053;DHT22;7101;51.600;7.310;2023-02-01T00:00:32;4.80;99.90
14053;DHT22;7101;51.600;7.310;2023-02-01T00:03:00;4.90;99.90
14053;DHT22;7101;51.600;7.310;2023-02-01T00:05:27;5.00;99.90
14053;DHT22;7101;51.600;7.310;2023-02-01T00:07:54;5.00;99.90
14053;DHT22;7101;51.600;7.310;2023-02-01T00:10:21;4.90;99.90
14053;DHT22;7101;51.600;7.310;2023-02-01T00:12:48;5.00;99.90
14053;DHT22;7101;51.600;7.310;2023-02-01T00:15:16;5.00;99.90
14053;DHT22;7101;51.600;7.310;2023-02-01T00:17:45;5.10;99.90
14053;DHT22;7101;51.600;7.310;2023-02-01T00:20:12;5.10;99.90
14053;DHT22;7101;51.600;7.310;2023-02-01T00:22:40;5.00;99.90
14053;DHT22;7101;51.600;7.310;2023-02-01T00:25:09;5.10;99.90
14053;DHT22;7101;51.600;7.310;2023-02-01T00:27:48;5.20;99.90
14053;DHT22;7101;51.600;7.310;2023-02-01T00:30:15;5.20;99.90
14053;DHT22;7101;51.600;7.310;2023-02-01T00:32:42;5.30;99.90
14053;DHT22;7101;51.600;7.310;2023-02-01T00:35:12;5.30;85.50
14053;DHT22;7101;51.600;7.310;2023-02-01T00:37:38;5.40;1.00
14053;DHT22;7101;51.600;7.310;2023-02-01T00:40:06;5.40;1.00
14053;DHT22;7101;51.600;7.310;2023-02-01T00:42:33;5.40;1.00
14053;DHT22;7101;51.600;7.310;2023-02-01T00:45:00;5.40;99.90
14053;DHT22;7101;51.600;7.310;2023-02-01T00:47:27;5.40;1.00
14053;DHT22;7101;51.600;7.310;2023-02-01T00:49:55;5.50;99.90
14053;DHT22;7101;51.600;7.310;2023-02-01T00:52:24;5.40;1.00
14053;DHT22;7101;51.600;7.310;2023-02-01T00:54:50;5.40;99.90
14053;DHT22;7101;51.600;7.310;2023-02-01T00:57:17;5.40;1.00
14053;DHT22;7101;51.600;7.310;2023-02-01T00:59:45;5.50;1.00
14053;DHT22;7101;51.600;7.310;2023-02-01T01:02:11;5.50;1.00
14053;DHT22;7101;51.600;7.310;2023-02-01T01:04:39;5.50;99.90
14053;DHT22;7101;51.600;7.310;2023-02-01T01:07:06;5.60;99.90
14053;DHT22;7101;51.600;7.310;2023-02-01T01:09:34;5.60;99.90
14053;DHT22;7101;51.600;7.310;2023-02-01T01:12:01;5.60;99.90
14053;DHT22;7101;51.600;7.310;2023-02-01T01:14:28;5.60;99.90
14053;DHT22;7101;51.600;7.310;2023-02-01T01:16:55;5.70;1.00
14053;DHT22;7101;51.600;7.310;2023-02-01T01:19:21;5.60;99.90
14053;DHT22;7101;51.600;7.310;2023-02-01T01:21:48;5.60;1.00
14053;DHT22;7101;51.600;7.310;2023-02-01T01:24:15;5.60;1.00
14053;DHT22;7101;51.600;7.310;2023-02-01T01:26:43;5.70;99.90
14053;DHT22;7101;51.600;7.310;2023-02-01T01:29:10;5.70;99.90
14053;DHT22;7101;51.600;7.310;2023-02-01T01:31:36;5.70;99.90
14053;DHT22;7101;51.600;7.310;2023-02-01T01:34:03;5.60;15.00
14053;DHT22;7101;51.600;7.310;2023-02-01T01:36:31;5.60;1.00
14053;DHT22;7101;51.600;7.310;2023-02-01T01:38:58;5.70;1.00
14053;DHT22;7101;51.600;7.310;2023-02-01T01:41:28;5.60;1.00
14053;DHT22;7101;51.600;7.310;2023-02-01T01:43:59;5.60;1.00
14053;DHT22;7101;51.600;7.310;2023-02-01T01:46:27;5.60;1.00
14053;DHT22;7101;51.600;7.310;2023-02-01T01:49:01;5.60;1.00
14053;DHT22;7101;51.600;7.310;2023-02-01T01:51:30;5.60;1.00
14053;DHT22;7101;51.600;7.310;2023-02-01T01:54:02;5.70;1.00
14053;DHT22;7101;51.600;7.310;2023-02-01T01:56:32;5.60;1.00
14053;DHT22;7101;51.600;7.310;2023-02-01T01:59:02;5.60;1.00
14053;DHT22;7101;51.600;7.310;2023-02-01T02:01:31;5.60;1.00
14053;DHT22;7101;51.600;7.310;2023-02-01T02:03:59;5.60;1.00
14053;DHT22;7101;51.600;7.310;2023-02-01T02:06:33;5.60;1.00
14053;DHT22;7101;51.600;7.310;2023-02-01T02:09:03;5.50;99.90
14053;DHT22;7101;51.600;7.310;2023-02-01T02:11:31;5.60;99.90
14053;DHT22;7101;51.600;7.310;2023-02-01T02:14:00;5.70;99.90
14053;DHT22;7101;51.600;7.310;2023-02-01T02:16:49;5.70;99.90
14053;DHT22;7101;51.600;7.310;2023-02-01T02:19:48;5.70;99.90
14053;DHT22;7101;51.600;7.310;2023-02-01T02:22:48;5.70;99.90
14053;DHT22;7101;51.600;7.310;2023-02-01T02:25:42;5.70;99.90
14053;DHT22;7101;51.600;7.310;2023-02-01T02:28:21;5.80;99.90
14053;DHT22;7101;51.600;7.310;2023-02-01T02:31:31;5.80;99.90
14053;DHT22;7101;51.600;7.310;2023-02-01T02:34:10;5.70;1.00
14053;DHT22;7101;51.600;7.310;2023-02-01T02:36:48;5.70;1.00
14053;DHT22;7101;51.600;7.310;2023-02-01T02:39:23;5.70;1.00
14053;DHT22;7101;51.600;7.310;2023-02-01T02:42:05;5.70;1.00
14053;DHT22;7101;51.600;7.310;2023-02-01T02:44:57;5.80;1.00
14053;DHT22;7101;51.600;7.310;2023-02-01T02:47:50;5.80;99.90
14053;DHT22;7101;51.600;7.310;2023-02-01T02:50:24;5.80;99.90
14053;DHT22;7101;51.600;7.310;2023-02-01T02:53:14;5.80;99.90
14053;DHT22;7101;51.600;7.310;2023-02-01T02:56:03;5.70;99.90
14053;DHT22;7101;51.600;7.310;2023-02-01T02:58:50;5.60;99.90
14053;DHT22;7101;51.600;7.310;2023-02-01T03:01:34;5.60;99.90
14053;DHT22;7101;51.600;7.310;2023-02-01T03:04:19;5.60;99.90
14053;DHT22;7101;51.600;7.310;2023-02-01T03:06:47;5.60;99.90
14053;DHT22;7101;51.600;7.310;2023-02-01T03:09:20;5.60;99.90
14053;DHT22;7101;51.600;7.310;2023-02-01T03:11:50;5.70;99.90
14053;DHT22;7101;51.600;7.310;2023-02-01T03:14:38;5.60;99.90
14053;DHT22;7101;51.600;7.310;2023-02-01T03:17:11;5.70;99.90
14053;DHT22;7101;51.600;7.310;2023-02-01T03:19:42;5.70;99.90
14053;DHT22;7101;51.600;7.310;2023-02-01T03:22:17;5.70;11.10
14053;DHT22;7101;51.600;7.310;2023-02-01T03:24:49;5.70;1.00
14053;DHT22;7101;51.600;7.310;2023-02-01T03:27:21;5.70;1.00
14053;DHT22;7101;51.600;7.310;2023-02-01T03:29:54;5.70;1.00
14053;DHT22;7101;51.600;7.310;2023-02-01T03:32:22;5.70;1.00
14053;DHT22;7101;51.600;7.310;2023-02-01T03:34:49;5.60;1.00
14053;DHT22;7101;51.600;7.310;2023-02-01T03:37:23;5.60;1.00
14053;DHT22;7101;51.600;7.310;2023-02-01T03:39:53;5.60;1.00
14053;DHT22;7101;51.600;7.310;2023-02-01T03:42:27;5.70;1.00
14053;DHT22;7101;51.600;7.310;2023-02-01T03:44:59;5.60;1.00
14053;DHT22;7101;51.600;7.310;2023-02-01T03:47:34;5.70;99.90
14053;DHT22;7101;51.600;7.310;2023-02-01T03:50:04;5.70;1.00
14053;DHT22;7101;51.600;7.310;2023-02-01T03:52:38;5.60;1.00
14053;DHT22;7101;51.600;7.310;2023-02-01T03:55:07;5.70;1.00
14053;DHT22;7101;51.600;7.310;2023-02-01T03:57:39;5.70;1.00
14053;DHT22;7101;51.600;7.310;2023-02-01T04:00:15;5.60;1.00
14053;DHT22;7101;51.600;7.310;2023-02-01T04:02:42;5.50;68.00
14053;DHT22;7101;51.600;7.310;2023-02-01T04:05:09;5.50;99.90
14053;DHT22;7101;51.600;7.310;2023-02-01T04:07:38;5.50;99.90
14053;DHT22;7101;51.600;7.310;2023-02-01T04:10:08;5.50;1.00
14053;DHT22;7101;51.600;7.310;2023-02-01T04:12:35;5.50;1.00
14053;DHT22;7101;51.600;7.310;2023-02-01T04:15:04;5.50;1.00
14053;DHT22;7101;51.600;7.310;2023-02-01T04:17:31;5.50;1.00
14053;DHT22;7101;51.600;7.310;2023-02-01T04:19:58;5.50;1.00
14053;DHT22;7101;51.600;7.310;2023-02-01T04:22:25;5.50;1.00
14053;DHT22;7101;51.600;7.310;2023-02-01T04:24:53;5.60;1.00
14053;DHT22;7101;51.600;7.310;2023-02-01T04:27:19;5.60;1.00
14053;DHT22;7101;51.600;7.310;2023-02-01T04:29:46;5.60;1.00
14053;DHT22;7101;51.600;7.310;2023-02-01T04:32:15;5.60;1.00
14053;DHT22;7101;51.600;7.310;2023-02-01T04:34:42;5.60;1.00
14053;DHT22;7101;51.600;7.310;2023-02-01T04:37:10;5.70;1.00
14053;DHT22;7101;51.600;7.310;2023-02-01T04:39:36;5.70;1.00
14053;DHT22;7101;51.600;7.310;2023-02-01T04:42:05;5.60;1.00
14053;DHT22;7101;51.600;7.310;2023-02-01T04:44:32;5.60;1.00
14053;DHT22;7101;51.600;7.310;2023-02-01T04:46:59;5.60;99.90
14053;DHT22;7101;51.600;7.310;2023-02-01T04:49:26;5.60;99.90
14053;DHT22;7101;51.600;7.310;2023-02-01T04:51:53;5.60;1.00
14053;DHT22;7101;51.600;7.310;2023-02-01T04:54:20;5.60;1.00
14053;DHT22;7101;51.600;7.310;2023-02-01T04:56:47;5.70;1.00
14053;DHT22;7101;51.600;7.310;2023-02-01T04:59:15;5.60;1.00
14053;DHT22;7101;51.600;7.310;2023-02-01T05:01:42;5.70;1.00
14053;DHT22;7101;51.600;7.310;2023-02-01T05:04:09;5.70;1.00
14053;DHT22;7101;51.600;7.310;2023-02-01T05:06:36;5.60;1.00
14053;DHT22;7101;51.600;7.310;2023-02-01T05:09:03;5.60;1.00
14053;DHT22;7101;51.600;7.310;2023-02-01T05:11:29;5.60;1.00
14053;DHT22;7101;51.600;7.310;2023-02-01T05:14:15;5.60;99.90
14053;DHT22;7101;51.600;7.310;2023-02-01T05:16:42;5.60;99.90
14053;DHT22;7101;51.600;7.310;2023-02-01T05:19:09;5.60;99.90
14053;DHT22;7101;51.600;7.310;2023-02-01T05:21:36;5.60;99.90
14053;DHT22;7101;51.600;7.310;2023-02-01T05:24:05;5.60;99.90
14053;DHT22;7101;51.600;7.310;2023-02-01T05:26:48;5.60;99.90
14053;DHT22;7101;51.600;7.310;2023-02-01T05:29:17;5.60;99.90
14053;DHT22;7101;51.600;7.310;2023-02-01T05:31:44;5.70;1.00
14053;DHT22;7101;51.600;7.310;2023-02-01T05:34:12;5.70;1.00
14053;DHT22;7101;51.600;7.310;2023-02-01T05:36:41;5.70;1.00
14053;DHT22;7101;51.600;7.310;2023-02-01T05:39:08;5.70;1.00
14053;DHT22;7101;51.600;7.310;2023-02-01T05:41:35;5.70;1.00
14053;DHT22;7101;51.600;7.310;2023-02-01T05:44:05;5.70;1.00
14053;DHT22;7101;51.600;7.310;2023-02-01T05:46:34;5.60;1.00
14053;DHT22;7101;51.600;7.310;2023-02-01T05:49:01;5.70;92.40
14053;DHT22;7101;51.600;7.310;2023-02-01T05:51:29;5.70;99.90
14053;DHT22;7101;51.600;7.310;2023-02-01T05:53:56;5.60;99.90
14053;DHT22;7101;51.600;7.310;2023-02-01T05:56:23;5.50;99.90
14053;DHT22;7101;51.600;7.310;2023-02-01T05:58:50;5.40;1.00
14053;DHT22;7101;51.600;7.310;2023-02-01T06:01:18;5.40;26.00
14053;DHT22;7101;51.600;7.310;2023-02-01T06:03:52;5.30;1.00
14053;DHT22;7101;51.600;7.310;2023-02-01T06:06:19;5.30;73.50
14053;DHT22;7101;51.600;7.310;2023-02-01T06:08:53;5.30;1.00
14053;DHT22;7101;51.600;7.310;2023-02-01T06:11:20;5.50;1.00
14053;DHT22;7101;51.600;7.310;2023-02-01T06:13:47;5.50;99.90
14053;DHT22;7101;51.600;7.310;2023-02-01T06:16:13;5.50;99.90
14053;DHT22;7101;51.600;7.310;2023-02-01T06:18:42;5.50;1.00
14053;DHT22;7101;51.600;7.310;2023-02-01T06:21:12;5.50;99.90
14053;DHT22;7101;51.600;7.310;2023-02-01T06:23:43;5.60;28.20
14053;DHT22;7101;51.600;7.310;2023-02-01T06:26:10;5.60;1.00
14053;DHT22;7101;51.600;7.310;2023-02-01T06:28:39;5.50;1.00
14053;DHT22;7101;51.600;7.310;2023-02-01T06:31:06;5.40;99.90
14053;DHT22;7101;51.600;7.310;2023-02-01T06:33:33;5.40;1.00
14053;DHT22;7101;51.600;7.310;2023-02-01T06:36:03;5.40;1.00
14053;DHT22;7101;51.600;7.310;2023-02-01T06:38:37;5.50;1.00
14053;DHT22;7101;51.600;7.310;2023-02-01T06:41:05;5.50;1.00
14053;DHT22;7101;51.600;7.310;2023-02-01T06:43:32;5.50;1.00
14053;DHT22;7101;51.600;7.310;2023-02-01T06:46:07;5.50;1.00
14053;DHT22;7101;51.600;7.310;2023-02-01T06:48:34;5.50;1.00
14053;DHT22;7101;51.600;7.310;2023-02-01T06:51:01;5.50;99.90
14053;DHT22;7101;51.600;7.310;2023-02-01T06:53:29;5.50;34.60
14053;DHT22;7101;51.600;7.310;2023-02-01T06:55:59;5.60;1.00
14053;DHT22;7101;51.600;7.310;2023-02-01T06:58:28;5.60;99.90
14053;DHT22;7101;51.600;7.310;2023-02-01T07:01:04;5.50;99.90
14053;DHT22;7101;51.600;7.310;2023-02-01T07:03:30;5.50;99.90
14053;DHT22;7101;51.600;7.310;2023-02-01T07:05:57;5.50;1.00
14053;DHT22;7101;51.600;7.310;2023-02-01T07:08:27;5.60;1.00
14053;DHT22;7101;51.600;7.310;2023-02-01T07:10:54;5.60;1.00
14053;DHT22;7101;51.600;7.310;2023-02-01T07:13:22;5.60;1.00
14053;DHT22;7101;51.600;7.310;2023-02-01T07:15:48;5.60;1.00
14053;DHT22;7101;51.600;7.310;2023-02-01T07:18:19;5.60;99.90
14053;DHT22;7101;51.600;7.310;2023-02-01T07:20:50;5.70;99.90
14053;DHT22;7101;51.600;7.310;2023-02-01T07:23:23;5.70;99.90
14053;DHT22;7101;51.600;7.310;2023-02-01T07:25:57;5.70;19.50
14053;DHT22;7101;51.600;7.310;2023-02-01T07:28:28;5.70;99.90
14053;DHT22;7101;51.600;7.310;2023-02-01T07:31:02;5.70;93.60
14053;DHT22;7101;51.600;7.310;2023-02-01T07:33:31;5.70;13.70
14053;DHT22;7101;51.600;7.310;2023-02-01T07:36:01;5.70;2.30
14053;DHT22;7101;51.600;7.310;2023-02-01T07:38:30;5.70;99.90
14053;DHT22;7101;51.600;7.310;2023-02-01T07:40:59;5.70;1.00
14053;DHT22;7101;51.600;7.310;2023-02-01T07:43:28;5.70;1.00
14053;DHT22;7101;51.600;7.310;2023-02-01T07:45:55;5.70;99.90
14053;DHT22;7101;51.600;7.310;2023-02-01T07:48:25;5.80;99.90
14053;DHT22;7101;51.600;7.310;2023-02-01T07:50:57;5.70;1.00
14053;DHT22;7101;51.600;7.310;2023-02-01T07:53:27;5.70;1.00
14053;DHT22;7101;51.600;7.310;2023-02-01T07:56:01;5.80;1.00
14053;DHT22;7101;51.600;7.310;2023-02-01T07:58:29;5.80;1.00
14053;DHT22;7101;51.600;7.310;2023-02-01T08:00:57;5.70;1.00
14053;DHT22;7101;51.600;7.310;2023-02-01T08:03:54;5.80;1.00
14053;DHT22;7101;51.600;7.310;2023-02-01T08:06:29;5.80;99.90
14053;DHT22;7101;51.600;7.310;2023-02-01T08:08:57;5.80;1.00
14053;DHT22;7101;51.600;7.310;2023-02-01T08:11:27;5.80;1.00
14053;DHT22;7101;51.600;7.310;2023-02-01T08:13:55;5.80;99.90
14053;DHT22;7101;51.600;7.310;2023-02-01T08:16:23;5.80;99.90
14053;DHT22;7101;51.600;7.310;2023-02-01T08:18:52;5.80;99.90
14053;DHT22;7101;51.600;7.310;2023-02-01T08:21:27;5.80;1.00
14053;DHT22;7101;51.600;7.310;2023-02-01T08:24:05;5.80;1.00
14053;DHT22;7101;51.600;7.310;2023-02-01T08:26:32;5.80;1.00
14053;DHT22;7101;51.600;7.310;2023-02-01T08:29:02;5.80;1.00
14053;DHT22;7101;51.600;7.310;2023-02-01T08:31:31;5.80;1.00
14053;DHT22;7101;51.600;7.310;2023-02-01T08:34:03;5.80;1.00
14053;DHT22;7101;51.600;7.310;2023-02-01T08:36:31;5.80;1.00
14053;DHT22;7101;51.600;7.310;2023-02-01T08:38:58;5.90;1.00
14053;DHT22;7101;51.600;7.310;2023-02-01T08:41:27;5.80;98.40
14053;DHT22;7101;51.600;7.310;2023-02-01T08:43:56;5.90;1.00
14053;DHT22;7101;51.600;7.310;2023-02-01T08:46:25;5.90;81.50
14053;DHT22;7101;51.600;7.310;2023-02-01T08:48:52;5.90;1.00
14053;DHT22;7101;51.600;7.310;2023-02-01T08:51:21;5.90;1.00
14053;DHT22;7101;51.600;7.310;2023-02-01T08:53:49;6.00;18.40
14053;DHT22;7101;51.600;7.310;2023-02-01T08:56:17;5.90;1.00
14053;DHT22;7101;51.600;7.310;2023-02-01T08:58:47;6.00;99.90
14053;DHT22;7101;51.600;7.310;2023-02-01T09:01:16;6.00;99.90
14053;DHT22;7101;51.600;7.310;2023-02-01T09:03:51;6.00;1.00
14053;DHT22;7101;51.600;7.310;2023-02-01T09:06:19;6.00;99.90
14053;DHT22;7101;51.600;7.310;2023-02-01T09:08:47;6.10;16.40
14053;DHT22;7101;51.600;7.310;2023-02-01T09:11:17;6.10;1.00
14053;DHT22;7101;51.600;7.310;2023-02-01T09:13:45;6.10;1.00
14053;DHT22;7101;51.600;7.310;2023-02-01T09:16:12;6.20;1.00
14053;DHT22;7101;51.600;7.310;2023-02-01T09:18:39;6.20;99.90
14053;DHT22;7101;51.600;7.310;2023-02-01T09:21:08;6.20;1.00
14053;DHT22;7101;51.600;7.310;2023-02-01T09:23:36;6.20;1.00
14053;DHT22;7101;51.600;7.310;2023-02-01T09:26:04;6.20;1.00
14053;DHT22;7101;51.600;7.310;2023-02-01T09:28:32;6.30;1.00
14053;DHT22;7101;51.600;7.310;2023-02-01T09:31:00;6.30;1.00
14053;DHT22;7101;51.600;7.310;2023-02-01T09:33:28;6.30;1.00
14053;DHT22;7101;51.600;7.310;2023-02-01T09:35:57;6.30;99.90
14053;DHT22;7101;51.600;7.310;2023-02-01T09:38:27;6.20;99.90
14053;DHT22;7101;51.600;7.310;2023-02-01T09:40:55;6.20;1.00
14053;DHT22;7101;51.600;7.310;2023-02-01T09:43:34;6.50;1.00
14053;DHT22;7101;51.600;7.310;2023-02-01T09:46:18;6.60;1.00
14053;DHT22;7101;51.600;7.310;2023-02-01T09:48:49;6.60;1.00
14053;DHT22;7101;51.600;7.310;2023-02-01T09:51:23;6.60;1.00
14053;DHT22;7101;51.600;7.310;2023-02-01T09:53:59;6.70;99.90
14053;DHT22;7101;51.600;7.310;2023-02-01T09:56:34;6.70;99.90
14053;DHT22;7101;51.600;7.310;2023-02-01T09:59:21;6.60;99.90
14053;DHT22;7101;51.600;7.310;2023-02-01T10:01:51;6.60;99.90
14053;DHT22;7101;51.600;7.310;2023-02-01T10:04:20;6.60;99.90
14053;DHT22;7101;51.600;7.310;2023-02-01T10:07:11;6.70;1.00
14053;DHT22;7101;51.600;7.310;2023-02-01T10:09:52;6.70;1.00
14053;DHT22;7101;51.600;7.310;2023-02-01T10:12:49;6.60;1.00
14053;DHT22;7101;51.600;7.310;2023-02-01T10:15:41;6.80;1.00
14053;DHT22;7101;51.600;7.310;2023-02-01T10:21:28;6.80;99.90
14053;DHT22;7101;51.600;7.310;2023-02-01T10:24:09;6.70;90.00
14053;DHT22;7101;51.600;7.310;2023-02-01T10:26:44;6.70;99.90
14053;DHT22;7101;51.600;7.310;2023-02-01T10:29:16;6.70;99.90
14053;DHT22;7101;51.600;7.310;2023-02-01T10:31:44;6.70;99.90
14053;DHT22;7101;51.600;7.310;2023-02-01T10:34:18;6.80;99.90
14053;DHT22;7101;51.600;7.310;2023-02-01T10:36:53;6.80;99.90
14053;DHT22;7101;51.600;7.310;2023-02-01T10:39:20;6.70;99.90
14053;DHT22;7101;51.600;7.310;2023-02-01T10:41:49;6.60;72.30
14053;DHT22;7101;51.600;7.310;2023-02-01T10:44:19;6.70;99.90
14053;DHT22;7101;51.600;7.310;2023-02-01T10:46:48;6.80;99.90
14053;DHT22;7101;51.600;7.310;2023-02-01T10:49:18;6.60;99.90
14053;DHT22;7101;51.600;7.310;2023-02-01T10:51:48;6.60;99.90
14053;DHT22;7101;51.600;7.310;2023-02-01T10:54:20;6.60;99.90
14053;DHT22;7101;51.600;7.310;2023-02-01T10:56:49;6.60;99.90
14053;DHT22;7101;51.600;7.310;2023-02-01T10:59:19;6.50;99.90
14053;DHT22;7101;51.600;7.310;2023-02-01T11:01:48;6.60;99.90
14053;DHT22;7101;51.600;7.310;2023-02-01T11:04:16;6.70;67.20
14053;DHT22;7101;51.600;7.310;2023-02-01T11:06:48;6.70;1.00
14053;DHT22;7101;51.600;7.310;2023-02-01T11:09:21;6.80;1.00
14053;DHT22;7101;51.600;7.310;2023-02-01T11:11:57;6.80;1.00
14053;DHT22;7101;51.600;7.310;2023-02-01T11:14:34;6.80;1.00
14053;DHT22;7101;51.600;7.310;2023-02-01T11:17:12;6.80;1.00
14053;DHT22;7101;51.600;7.310;2023-02-01T11:19:44;6.70;1.00
14053;DHT22;7101;51.600;7.310;2023-02-01T11:22:12;6.80;1.00
14053;DHT22;7101;51.600;7.310;2023-02-01T11:24:44;6.80;1.00
14053;DHT22;7101;51.600;7.310;2023-02-01T11:27:16;6.80;1.00
14053;DHT22;7101;51.600;7.310;2023-02-01T11:29:46;6.90;1.00
14053;DHT22;7101;51.600;7.310;2023-02-01T11:32:17;6.90;1.00
14053;DHT22;7101;51.600;7.310;2023-02-01T11:34:46;6.90;1.00
14053;DHT22;7101;51.600;7.310;2023-02-01T11:37:19;7.00;1.00
14053;DHT22;7101;51.600;7.310;2023-02-01T11:39:54;7.10;1.00
14053;DHT22;7101;51.600;7.310;2023-02-01T11:42:23;7.20;1.00
14053;DHT22;7101;51.600;7.310;2023-02-01T11:44:50;7.20;99.90
14053;DHT22;7101;51.600;7.310;2023-02-01T11:47:23;7.10;99.90
14053;DHT22;7101;51.600;7.310;2023-02-01T11:49:51;7.20;99.90
14053;DHT22;7101;51.600;7.310;2023-02-01T11:52:29;7.20;99.90
14053;DHT22;7101;51.600;7.310;2023-02-01T11:55:06;7.20;99.90
14053;DHT22;7101;51.600;7.310;2023-02-01T11:57:57;7.30;99.90
14053;DHT22;7101;51.600;7.310;2023-02-01T12:00:46;7.10;88.50
14053;DHT22;7101;51.600;7.310;2023-02-01T12:03:45;6.90;99.90
14053;DHT22;7101;51.600;7.310;2023-02-01T12:06:25;6.90;1.00
14053;DHT22;7101;51.600;7.310;2023-02-01T12:09:12;6.60;1.00
14053;DHT22;7101;51.600;7.310;2023-02-01T12:11:50;6.60;99.90
14053;DHT22;7101;51.600;7.310;2023-02-01T12:14:30;6.50;99.90
14053;DHT22;7101;51.600;7.310;2023-02-01T12:17:21;6.40;1.00
14053;DHT22;7101;51.600;7.310;2023-02-01T12:20:07;6.20;99.90
14053;DHT22;7101;51.600;7.310;2023-02-01T12:22:49;6.20;1.00
14053;DHT22;7101;51.600;7.310;2023-02-01T12:25:31;6.20;1.00
14053;DHT22;7101;51.600;7.310;2023-02-01T12:28:31;6.20;54.10
14053;DHT22;7101;51.600;7.310;2023-02-01T12:31:17;6.20;1.00
14053;DHT22;7101;51.600;7.310;2023-02-01T12:33:58;6.30;99.90
14053;DHT22;7101;51.600;7.310;2023-02-01T12:36:38;6.40;1.00
14053;DHT22;7101;51.600;7.310;2023-02-01T12:39:16;6.50;99.90
14053;DHT22;7101;51.600;7.310;2023-02-01T12:41:52;6.60;1.00
14053;DHT22;7101;51.600;7.310;2023-02-01T12:44:28;6.60;1.00
14053;DHT22;7101;51.600;7.310;2023-02-01T12:47:05;6.70;99.90
14053;DHT22;7101;51.600;7.310;2023-02-01T12:49:46;6.70;1.00
14053;DHT22;7101;51.600;7.310;2023-02-01T12:52:16;6.70;1.00
14053;DHT22;7101;51.600;7.310;2023-02-01T12:54:49;6.80;1.00
14053;DHT22;7101;51.600;7.310;2023-02-01T12:57:21;6.80;99.90
14053;DHT22;7101;51.600;7.310;2023-02-01T12:59:54;6.80;1.00
14053;DHT22;7101;51.600;7.310;2023-02-01T13:02:28;6.90;84.70
14053;DHT22;7101;51.600;7.310;2023-02-01T13:05:04;6.90;99.90
14053;DHT22;7101;51.600;7.310;2023-02-01T13:07:43;6.80;1.00
14053;DHT22;7101;51.600;7.310;2023-02-01T13:10:15;6.70;99.90
14053;DHT22;7101;51.600;7.310;2023-02-01T13:12:47;6.70;99.90
14053;DHT22;7101;51.600;7.310;2023-02-01T13:15:19;6.60;1.00
14053;DHT22;7101;51.600;7.310;2023-02-01T13:17:49;6.60;1.00
14053;DHT22;7101;51.600;7.310;2023-02-01T13:20:24;6.60;99.90
14053;DHT22;7101;51.600;7.310;2023-02-01T13:22:54;6.60;1.00
14053;DHT22;7101;51.600;7.310;2023-02-01T13:25:30;6.60;99.90
14053;DHT22;7101;51.600;7.310;2023-02-01T13:28:03;6.70;1.00
14053;DHT22;7101;51.600;7.310;2023-02-01T13:30:43;6.70;1.00
14053;DHT22;7101;51.600;7.310;2023-02-01T13:33:30;6.80;1.00
14053;DHT22;7101;51.600;7.310;2023-02-01T13:39:35;7.10;1.00
14053;DHT22;7101;51.600;7.310;2023-02-01T13:42:14;7.00;1.00
14053;DHT22;7101;51.600;7.310;2023-02-01T13:44:46;7.00;1.00
14053;DHT22;7101;51.600;7.310;2023-02-01T13:47:22;7.00;99.90
14053;DHT22;7101;51.600;7.310;2023-02-01T13:49:53;7.10;1.00
14053;DHT22;7101;51.600;7.310;2023-02-01T13:52:31;7.10;1.00
14053;DHT22;7101;51.600;7.310;2023-02-01T13:55:27;7.10;1.00
14053;DHT22;7101;51.600;7.310;2023-02-01T13:58:03;7.10;1.00
14053;DHT22;7101;51.600;7.310;2023-02-01T14:00:32;7.10;99.90
14053;DHT22;7101;51.600;7.310;2023-02-01T14:03:12;7.20;3.40
14053;DHT22;7101;51.600;7.310;2023-02-01T14:06:03;7.30;84.50
14053;DHT22;7101;51.600;7.310;2023-02-01T14:08:45;7.30;99.90
14053;DHT22;7101;51.600;7.310;2023-02-01T14:11:48;7.30;99.90
14053;DHT22;7101;51.600;7.310;2023-02-01T14:14:52;7.20;1.00
14053;DHT22;7101;51.600;7.310;2023-02-01T14:17:43;7.00;1.00
14053;DHT22;7101;51.600;7.310;2023-02-01T14:20:43;7.00;1.00
14053;DHT22;7101;51.600;7.310;2023-02-01T14:23:18;7.00;1.00
14053;DHT22;7101;51.600;7.310;2023-02-01T14:26:01;7.00;99.90
14053;DHT22;7101;51.600;7.310;2023-02-01T14:28:29;7.10;99.90
14053;DHT22;7101;51.600;7.310;2023-02-01T14:30:58;7.20;1.00
14053;DHT22;7101;51.600;7.310;2023-02-01T14:33:27;7.20;1.00
14053;DHT22;7101;51.600;7.310;2023-02-01T14:36:07;7.30;1.00
14053;DHT22;7101;51.600;7.310;2023-02-01T14:38:36;7.30;1.00
14053;DHT22;7101;51.600;7.310;2023-02-01T14:41:26;7.30;1.00
14053;DHT22;7101;51.600;7.310;2023-02-01T14:44:24;7.20;1.00
14053;DHT22;7101;51.600;7.310;2023-02-01T14:52:51;7.20;1.00
14053;DHT22;7101;51.600;7.310;2023-02-01T14:55:28;7.10;99.90
14053;DHT22;7101;51.600;7.310;2023-02-01T14:57:58;7.10;99.90
14053;DHT22;7101;51.600;7.310;2023-02-01T15:00:28;7.20;99.90
14053;DHT22;7101;51.600;7.310;2023-02-01T15:03:15;7.20;1.00
14053;DHT22;7101;51.600;7.310;2023-02-01T15:05:45;7.20;99.90
14053;DHT22;7101;51.600;7.310;2023-02-01T15:08:16;7.20;1.00
14053;DHT22;7101;51.600;7.310;2023-02-01T15:10:46;7.30;99.90
14053;DHT22;7101;51.600;7.310;2023-02-01T15:13:21;7.30;1.00
14053;DHT22;7101;51.600;7.310;2023-02-01T15:16:03;7.30;43.90
14053;DHT22;7101;51.600;7.310;2023-02-01T15:18:31;7.20;1.00
14053;DHT22;7101;51.600;7.310;2023-02-01T15:21:01;7.30;1.00
14053;DHT22;7101;51.600;7.310;2023-02-01T15:23:29;7.30;1.00
14053;DHT22;7101;51.600;7.310;2023-02-01T15:25:56;7.30;1.00
14053;DHT22;7101;51.600;7.310;2023-02-01T15:28:23;7.20;1.00
14053;DHT22;7101;51.600;7.310;2023-02-01T15:30:59;7.00;1.00
14053;DHT22;7101;51.600;7.310;2023-02-01T15:33:27;7.00;99.90
14053;DHT22;7101;51.600;7.310;2023-02-01T15:36:09;6.90;37.80
14053;DHT22;7101;51.600;7.310;2023-02-01T15:38:39;7.00;1.00
14053;DHT22;7101;51.600;7.310;2023-02-01T15:41:12;7.00;99.90
14053;DHT22;7101;51.600;7.310;2023-02-01T15:43:42;7.00;1.00
14053;DHT22;7101;51.600;7.310;2023-02-01T15:46:13;7.00;1.00
14053;DHT22;7101;51.600;7.310;2023-02-01T15:48:49;7.00;1.00
14053;DHT22;7101;51.600;7.310;2023-02-01T15:51:20;7.10;1.00
14053;DHT22;7101;51.600;7.310;2023-02-01T15:53:51;7.10;1.00
14053;DHT22;7101;51.600;7.310;2023-02-01T15:56:24;7.20;99.90
14053;DHT22;7101;51.600;7.310;2023-02-01T15:58:54;7.20;1.00
14053;DHT22;7101;51.600;7.310;2023-02-01T16:01:23;7.20;99.90
14053;DHT22;7101;51.600;7.310;2023-02-01T16:04:02;7.20;1.00
14053;DHT22;7101;51.600;7.310;2023-02-01T16:06:32;7.20;1.00
14053;DHT22;7101;51.600;7.310;2023-02-01T16:09:07;7.20;1.00
14053;DHT22;7101;51.600;7.310;2023-02-01T16:11:41;7.20;1.00
14053;DHT22;7101;51.600;7.310;2023-02-01T16:14:13;7.30;50.90
14053;DHT22;7101;51.600;7.310;2023-02-01T16:16:40;7.20;99.90
14053;DHT22;7101;51.600;7.310;2023-02-01T16:19:07;7.30;1.00
14053;DHT22;7101;51.600;7.310;2023-02-01T16:21:35;7.30;1.00
14053;DHT22;7101;51.600;7.310;2023-02-01T16:24:02;7.30;1.00
14053;DHT22;7101;51.600;7.310;2023-02-01T16:26:30;7.30;1.00
14053;DHT22;7101;51.600;7.310;2023-02-01T16:28:59;7.20;99.90
14053;DHT22;7101;51.600;7.310;2023-02-01T16:31:30;7.20;1.00
14053;DHT22;7101;51.600;7.310;2023-02-01T16:33:57;7.20;99.90
14053;DHT22;7101;51.600;7.310;2023-02-01T16:36:24;7.20;1.00
14053;DHT22;7101;51.600;7.310;2023-02-01T16:38:54;7.10;99.90
14053;DHT22;7101;51.600;7.310;2023-02-01T16:41:23;6.90;1.00
14053;DHT22;7101;51.600;7.310;2023-02-01T16:43:51;6.90;99.90
14053;DHT22;7101;51.600;7.310;2023-02-01T16:46:19;6.80;99.90
14053;DHT22;7101;51.600;7.310;2023-02-01T16:48:52;6.70;1.00
14053;DHT22;7101;51.600;7.310;2023-02-01T16:51:21;6.60;99.90
14053;DHT22;7101;51.600;7.310;2023-02-01T16:53:51;6.50;1.00
14053;DHT22;7101;51.600;7.310;2023-02-01T16:56:22;6.40;1.00